Time;durP1;ratioP1;P1;durP2;ratioP2;P2;SDS_P1;SDS_P2;PMS_P1;PMS_P2;Temp;Humidity;BMP_temperature;BMP_pressure;BME280_temperature;BME280_humidity;BME280_pressure;Samples;Min_cycle;Max_cycle;Signal;HPM_P1;HPM_P2
2022/06/17 00:01:28;;;;;;;10.63;7.78;;;;;;;21.67;44.56;102223.34;5032953;28;20108;-67
2022/06/17 00:03:55;;;;;;;8.82;7.95;;;;;;;21.66;44.58;102227.09;5033053;28;20052;-67
2022/06/17 00:06:25;;;;;;;10.38;8.07;;;;;;;21.60;44.70;102235.91;5032615;28;20564;-66
2022/06/17 00:08:52;;;;;;;9.15;7.72;;;;;;;21.53;44.40;102227.38;5033208;28;20045;-66
2022/06/17 00:11:24;;;;;;;11.40;8.07;;;;;;;21.51;44.60;102223.94;5031213;28;20047;-67
2022/06/17 00:13:52;;;;;;;9.55;8.45;;;;;;;21.49;45.01;102225.97;5032389;28;20045;-67
2022/06/17 00:16:21;;;;;;;11.00;7.70;;;;;;;21.44;44.88;102222.81;5032058;28;20102;-67
2022/06/17 00:18:48;;;;;;;11.70;8.18;;;;;;;21.42;44.72;102223.97;5032397;28;20041;-67
2022/06/17 00:21:28;;;;;;;10.02;8.45;;;;;;;21.38;45.06;102222.53;5032200;28;20045;-67
2022/06/17 00:23:59;;;;;;;11.40;8.18;;;;;;;21.33;45.12;102220.22;5012554;28;20069;-67
2022/06/17 00:26:26;;;;;;;11.70;8.05;;;;;;;21.30;44.87;102228.72;5012093;28;20050;-67
2022/06/17 00:28:53;;;;;;;12.88;7.95;;;;;;;21.29;45.53;102229.72;5012412;28;20436;-67
2022/06/17 00:31:20;;;;;;;9.10;7.85;;;;;;;21.30;45.39;102231.47;5012176;28;20132;-67
2022/06/17 00:33:48;;;;;;;8.77;7.80;;;;;;;21.29;45.54;102227.00;5010957;28;20042;-67
2022/06/17 00:36:18;;;;;;;7.50;6.85;;;;;;;21.31;46.06;102224.13;5010968;28;20101;-67
2022/06/17 00:38:46;;;;;;;9.10;8.05;;;;;;;21.30;45.83;102227.84;5011347;28;20099;-67
2022/06/17 00:41:29;;;;;;;8.32;7.43;;;;;;;21.28;45.90;102244.41;5012371;28;20048;-67
2022/06/17 00:43:59;;;;;;;8.52;7.63;;;;;;;21.31;45.70;102238.66;5012080;28;20062;-68
2022/06/17 00:46:49;;;;;;;9.02;7.68;;;;;;;21.31;45.78;102235.91;5011933;28;20100;-68
2022/06/17 00:49:40;;;;;;;8.32;7.53;;;;;;;21.31;46.01;102235.91;5046854;28;20092;-68
2022/06/17 00:52:34;;;;;;;11.52;8.43;;;;;;;21.27;46.25;102231.75;5051350;28;20051;-68
2022/06/17 00:55:27;;;;;;;9.57;7.90;;;;;;;21.27;46.23;102230.88;5050182;28;20430;-67
2022/06/17 00:57:54;;;;;;;14.18;8.52;;;;;;;21.28;46.01;102230.75;5024348;28;20057;-67
2022/06/17 01:00:24;;;;;;;9.98;8.85;;;;;;;21.24;46.05;102232.03;5031528;28;20034;-68
2022/06/17 01:03:00;;;;;;;9.20;8.23;;;;;;;21.16;46.29;102234.59;5031514;28;20068;-67
2022/06/17 01:05:46;;;;;;;12.32;9.10;;;;;;;21.05;46.12;102240.19;5031472;28;20068;-67
2022/06/17 01:09:57;;;;;;;12.00;8.55;;;;;;;20.99;46.32;102244.38;5040647;28;20103;-68
2022/06/17 01:11:08;;;;;;;11.85;9.82;;;;;;;20.96;46.51;102239.19;5051132;28;20120;-67
2022/06/17 01:13:37;;;;;;;9.85;8.85;;;;;;;20.97;46.57;102238.19;5049952;28;20071;-67
2022/06/17 01:16:05;;;;;;;9.65;8.65;;;;;;;20.99;46.90;102243.50;5049181;28;20041;-67
2022/06/17 01:18:36;;;;;;;11.00;9.77;;;;;;;21.01;47.04;102247.81;5038267;28;20095;-67
2022/06/17 01:21:35;;;;;;;10.10;9.10;;;;;;;21.05;47.29;102249.25;5029940;28;20049;-67
2022/06/17 01:24:07;;;;;;;10.23;9.13;;;;;;;21.09;46.70;102258.03;5030478;28;20042;-67
2022/06/17 01:26:34;;;;;;;11.15;9.05;;;;;;;21.08;46.80;102248.09;5063324;28;20071;-68
2022/06/17 01:29:01;;;;;;;10.07;8.57;;;;;;;21.06;46.90;102250.13;5030975;28;20076;-67
2022/06/17 01:31:28;;;;;;;12.02;9.25;;;;;;;21.04;47.25;102242.06;5030890;28;20136;-67
2022/06/17 01:33:56;;;;;;;10.93;9.25;;;;;;;21.04;47.16;102241.22;5031627;28;20136;-67
2022/06/17 01:36:29;;;;;;;10.00;9.00;;;;;;;21.02;46.90;102237.75;5031162;28;20038;-67
2022/06/17 01:38:58;;;;;;;9.95;8.93;;;;;;;21.02;47.40;102235.88;5063008;28;20037;-67
2022/06/17 01:41:29;;;;;;;9.90;8.32;;;;;;;21.02;46.85;102226.84;5030048;28;20049;-67
2022/06/17 01:43:58;;;;;;;10.70;8.68;;;;;;;21.02;47.33;102226.84;5030239;28;20046;-66
2022/06/17 01:46:35;;;;;;;9.65;8.40;;;;;;;20.99;46.96;102222.53;5032173;28;20056;-67
2022/06/17 01:49:08;;;;;;;9.68;8.68;;;;;;;20.97;47.15;102216.34;5032015;28;20037;-67
2022/06/17 01:51:41;;;;;;;13.00;8.90;;;;;;;20.97;47.04;102218.22;5033574;28;20045;-69
2022/06/17 01:54:15;;;;;;;9.43;8.52;;;;;;;20.94;47.26;102214.75;5035209;28;20042;-67
2022/06/17 01:56:45;;;;;;;10.00;8.93;;;;;;;20.94;46.75;102214.75;5033727;28;20042;-67
2022/06/17 01:59:19;;;;;;;12.27;9.80;;;;;;;20.93;46.75;102223.97;5033762;28;20675;-66
2022/06/17 02:01:51;;;;;;;12.40;9.10;;;;;;;20.91;47.08;102217.78;5044225;28;20041;-67
2022/06/17 02:04:23;;;;;;;10.23;9.05;;;;;;;20.93;46.93;102223.97;5053932;28;20091;-67
2022/06/17 02:06:58;;;;;;;11.90;8.73;;;;;;;20.93;46.61;102212.16;5053135;28;20041;-67
2022/06/17 02:09:25;;;;;;;11.95;8.90;;;;;;;20.95;46.71;102218.34;5054269;28;20128;-67
2022/06/17 02:11:53;;;;;;;11.07;9.48;;;;;;;20.95;47.03;102226.53;5053158;28;20140;-67
2022/06/17 02:14:22;;;;;;;10.70;9.00;;;;;;;20.94;47.05;102224.81;5054727;28;20044;-67
2022/06/17 02:16:58;;;;;;;11.85;9.77;;;;;;;20.93;46.81;102226.69;5053150;28;20514;-68
2022/06/17 02:19:30;;;;;;;10.60;9.50;;;;;;;20.93;47.30;102234.88;5052847;28;20045;-67
2022/06/17 02:22:12;;;;;;;13.93;9.88;;;;;;;20.94;47.13;102230.28;5052987;28;20049;-67
2022/06/17 02:24:41;;;;;;;11.93;9.50;;;;;;;20.96;47.09;102238.34;5052927;28;20043;-67
2022/06/17 02:27:12;;;;;;;10.52;9.43;;;;;;;20.94;47.29;102230.28;5053404;28;20060;-67
2022/06/17 02:29:42;;;;;;;11.38;10.18;;;;;;;20.92;46.95;102237.75;5052971;28;20437;-67
2022/06/17 02:32:10;;;;;;;10.48;9.48;;;;;;;20.90;46.94;102243.34;5054166;28;20120;-67
2022/06/17 02:34:48;;;;;;;11.07;9.55;;;;;;;20.85;47.32;102237.47;5052720;28;20072;-67
2022/06/17 02:37:17;;;;;;;11.40;9.73;;;;;;;20.83;47.29;102242.19;5053624;28;20044;-67
2022/06/17 02:39:49;;;;;;;14.25;10.80;;;;;;;20.82;47.10;102243.22;5054116;28;20084;-67
2022/06/17 02:42:24;;;;;;;11.05;9.43;;;;;;;20.83;47.34;102239.47;5054194;28;20087;-68
2022/06/17 02:44:59;;;;;;;11.05;9.95;;;;;;;20.84;47.42;102235.75;5052633;28;20506;-67
2022/06/17 02:47:28;;;;;;;13.63;9.88;;;;;;;20.84;47.30;102223.94;5052727;28;20041;-68
2022/06/17 02:49:57;;;;;;;10.82;9.73;;;;;;;20.83;47.36;102228.56;5051744;28;20548;-67
2022/06/17 02:52:34;;;;;;;10.52;9.35;;;;;;;20.82;47.13;102231.44;5052749;28;20045;-67
2022/06/17 02:55:26;;;;;;;10.52;9.35;;;;;;;20.77;47.38;102225.50;5052442;28;20075;-67
2022/06/17 02:58:02;;;;;;;12.52;9.95;;;;;;;20.76;47.29;102224.63;5036113;28;20045;-67
2022/06/17 03:00:30;;;;;;;11.68;10.23;;;;;;;20.75;47.35;102222.91;5052421;28;20041;-67
2022/06/17 03:03:03;;;;;;;12.48;10.02;;;;;;;20.74;47.23;102223.91;5053338;28;20120;-67
2022/06/17 03:05:38;;;;;;;13.60;9.77;;;;;;;20.74;47.37;102231.22;5052322;28;20041;-67
2022/06/17 03:08:21;;;;;;;11.45;10.32;;;;;;;20.73;47.35;102232.25;5051337;28;20422;-67
2022/06/17 03:10:50;;;;;;;14.40;10.30;;;;;;;20.73;47.54;102229.50;5053507;28;20048;-68
2022/06/17 03:13:35;;;;;;;11.85;10.35;;;;;;;20.69;47.70;102228.94;5052010;28;20041;-68
2022/06/17 03:16:05;;;;;;;10.95;9.88;;;;;;;20.67;47.54;102224.63;5052002;28;20100;-68
2022/06/17 03:18:33;;;;;;;18.30;10.50;;;;;;;20.63;47.40;102221.31;5051909;28;20045;-67
2022/06/17 03:21:02;;;;;;;11.63;10.40;;;;;;;20.60;47.57;102224.31;5052040;28;20049;-67
2022/06/17 03:23:48;;;;;;;11.32;9.75;;;;;;;20.58;47.55;102224.47;5049634;28;20147;-68
2022/06/17 03:26:22;;;;;;;11.43;10.30;;;;;;;20.58;47.67;102229.91;5053236;28;20043;-68
2022/06/17 03:28:49;;;;;;;13.85;9.90;;;;;;;20.56;47.42;102237.38;5053250;28;20040;-67
2022/06/17 03:31:31;;;;;;;12.38;9.82;;;;;;;20.53;47.51;102242.25;5051463;28;20041;-67
2022/06/17 03:34:07;;;;;;;12.90;10.85;;;;;;;20.51;47.47;102249.72;5051545;28;20067;-68
2022/06/17 03:36:44;;;;;;;14.65;10.90;;;;;;;20.50;47.87;102240.66;5051659;28;20387;-67
2022/06/17 03:39:24;;;;;;;13.63;11.38;;;;;;;20.50;47.72;102250.72;5033608;28;20140;-68
2022/06/17 03:42:17;;;;;;;12.63;11.13;;;;;;;20.45;47.68;102251.16;5051437;28;20064;-68
2022/06/17 03:44:55;;;;;;;12.65;11.07;;;;;;;20.46;47.64;102252.88;5049481;28;20119;-67
2022/06/17 03:47:30;;;;;;;12.25;10.68;;;;;;;20.45;47.78;102255.75;5051261;28;20065;-67
2022/06/17 03:50:02;;;;;;;11.80;10.60;;;;;;;20.44;48.05;102254.00;5051573;28;20040;-67
2022/06/17 03:52:34;;;;;;;13.40;10.55;;;;;;;20.43;48.27;102258.59;5052378;28;20049;-70
2022/06/17 03:55:14;;;;;;;13.50;10.18;;;;;;;20.44;48.22;102259.47;5051422;28;20049;-67
2022/06/17 03:57:44;;;;;;;11.95;10.52;;;;;;;20.44;48.18;102260.34;5049333;28;20041;-68
2022/06/17 04:00:22;;;;;;;11.65;10.38;;;;;;;20.44;48.15;102260.34;5051286;28;20053;-67
2022/06/17 04:02:51;;;;;;;11.40;10.25;;;;;;;20.47;48.27;102256.47;5051613;28;20441;-67
2022/06/17 04:05:20;;;;;;;12.48;10.88;;;;;;;20.48;48.39;102263.66;5050631;28;20061;-68
2022/06/17 04:07:48;;;;;;;11.88;10.70;;;;;;;20.51;48.54;102271.56;5050816;28;20045;-67
2022/06/17 04:10:20;;;;;;;12.75;10.40;;;;;;;20.56;48.46;102269.28;5050977;28;20041;-67
2022/06/17 04:12:52;;;;;;;13.02;10.98;;;;;;;20.60;48.75;102268.00;5049206;28;20041;-69
2022/06/17 04:15:53;;;;;;;12.13;10.82;;;;;;;20.66;48.66;102264.69;5050850;28;20045;-68
2022/06/17 04:18:20;;;;;;;12.30;10.88;;;;;;;20.70;48.95;102262.56;5050990;28;20095;-68
2022/06/17 04:20:52;;;;;;;14.20;11.10;;;;;;;20.72;48.68;102261.41;5050799;28;20144;-68
2022/06/17 04:23:26;;;;;;;13.10;11.30;;;;;;;20.77;48.75;102261.84;5050896;28;20075;-67
2022/06/17 04:26:02;;;;;;;12.90;10.93;;;;;;;20.83;49.02;102260.44;5051838;28;20045;-68
2022/06/17 04:28:36;;;;;;;13.68;11.25;;;;;;;20.87;48.92;102251.84;5049018;28;20574;-68
2022/06/17 04:31:07;;;;;;;12.82;11.15;;;;;;;20.91;49.00;102247.81;5050694;28;20102;-67
2022/06/17 04:33:43;;;;;;;12.50;10.63;;;;;;;20.95;48.57;102240.19;5050411;28;20052;-67
2022/06/17 04:36:20;;;;;;;12.37;11.07;;;;;;;20.99;48.90;102243.50;5051531;28;20055;-67
2022/06/17 04:38:54;;;;;;;16.20;11.15;;;;;;;21.03;48.46;102244.94;5050263;28;20135;-68
2022/06/17 04:41:45;;;;;;;13.23;11.07;;;;;;;21.05;48.47;102245.66;5050451;28;20060;-67
2022/06/17 04:44:50;;;;;;;14.98;11.38;;;;;;;21.08;48.37;102240.78;5049365;28;20053;-67
2022/06/17 04:47:20;;;;;;;12.43;11.13;;;;;;;21.11;48.74;102235.03;5048280;28;20321;-67
2022/06/17 04:50:03;;;;;;;12.93;11.25;;;;;;;21.16;48.50;102242.78;5050334;28;20053;-68
2022/06/17 04:52:42;;;;;;;11.95;10.75;;;;;;;21.22;48.58;102236.75;5049887;28;20434;-68
2022/06/17 04:55:34;;;;;;;13.63;11.38;;;;;;;21.28;48.33;102228.00;5051788;28;20187;-67
2022/06/17 04:58:17;;;;;;;12.55;10.98;;;;;;;21.34;48.58;102235.63;5051607;28;20059;-68
2022/06/17 05:00:51;;;;;;;15.63;11.85;;;;;;;21.40;48.63;102239.63;5050239;28;20052;-68
2022/06/17 05:03:29;;;;;;;17.42;12.98;;;;;;;21.44;48.76;102236.47;5032970;28;20053;-67
2022/06/17 05:06:09;;;;;;;16.38;12.80;;;;;;;21.46;48.79;102236.31;5031484;28;20037;-67
2022/06/17 05:08:48;;;;;;;15.90;11.93;;;;;;;21.44;48.77;102238.34;5030120;28;20052;-67
2022/06/17 05:11:26;;;;;;;15.38;12.35;;;;;;;21.48;48.74;102239.78;5030149;28;20041;-67
2022/06/17 05:14:03;;;;;;;13.65;11.95;;;;;;;21.52;48.65;102222.94;5030065;28;20050;-68
2022/06/17 05:16:31;;;;;;;12.77;11.18;;;;;;;21.57;48.41;102225.25;5030017;28;20389;-67
2022/06/17 05:18:57;;;;;;;14.43;10.65;;;;;;;21.59;48.06;102222.38;5032232;28;20091;-68
2022/06/17 05:21:25;;;;;;;12.23;11.07;;;;;;;21.63;48.23;102212.88;5029916;28;20507;-68
2022/06/17 05:24:03;;;;;;;12.25;10.20;;;;;;;21.65;47.91;102219.06;5029528;28;20474;-68
2022/06/17 05:26:30;;;;;;;11.43;10.30;;;;;;;21.69;48.09;102223.22;5029659;28;20159;-67
2022/06/17 05:28:58;;;;;;;15.63;10.93;;;;;;;21.73;47.96;102227.38;5030092;28;20065;-67
2022/06/17 05:31:30;;;;;;;14.30;12.27;;;;;;;21.76;47.96;102224.34;5029829;28;20049;-68
2022/06/17 05:34:03;;;;;;;15.73;12.20;;;;;;;21.76;47.77;102217.00;5031215;28;20038;-68
2022/06/17 05:36:30;;;;;;;16.15;12.77;;;;;;;21.79;47.70;102218.56;5029722;28;20095;-68
2022/06/17 05:38:57;;;;;;;17.10;13.45;;;;;;;21.83;47.72;102215.41;5029680;28;20041;-68
2022/06/17 05:41:25;;;;;;;14.93;13.23;;;;;;;21.89;47.70;102224.88;5029802;28;20044;-68
2022/06/17 05:43:54;;;;;;;15.38;11.55;;;;;;;21.98;47.98;102220.38;5029789;28;20482;-67
2022/06/17 05:46:37;;;;;;;14.88;11.65;;;;;;;22.08;47.95;102222.09;5029693;28;20041;-66
2022/06/17 05:49:13;;;;;;;13.07;11.77;;;;;;;22.22;47.59;102219.88;5029532;28;20053;-67
2022/06/17 05:52:03;;;;;;;12.00;10.80;;;;;;;22.36;47.30;102225.72;5044837;28;20060;-67
2022/06/17 05:54:45;;;;;;;13.27;11.15;;;;;;;22.49;47.21;102222.63;5029708;28;20096;-68
2022/06/17 05:57:16;;;;;;;16.75;11.82;;;;;;;22.57;47.28;102220.00;5029524;28;20049;-68
2022/06/17 05:59:43;;;;;;;12.07;10.50;;;;;;;22.67;47.46;102228.13;5029445;28;20103;-68
2022/06/17 06:02:16;;;;;;;12.38;10.60;;;;;;;22.80;47.66;102231.38;5029536;28;20069;-68
2022/06/17 06:05:01;;;;;;;12.75;10.18;;;;;;;22.95;47.31;102228.97;5029834;28;20042;-68
2022/06/17 06:07:31;;;;;;;10.77;9.13;;;;;;;23.04;47.48;102231.66;5061462;28;20052;-68
2022/06/17 06:09:58;;;;;;;13.60;9.82;;;;;;;23.17;47.13;102216.69;5029482;28;20038;-68
2022/06/17 06:12:53;;;;;;;11.60;8.55;;;;;;;23.28;47.17;102220.06;5029261;28;20057;-68
2022/06/17 06:15:16;;;;;;;12.63;8.32;;;;;;;23.42;46.76;102214.00;5028928;28;20049;-68
2022/06/17 06:18:18;;;;;;;10.48;8.60;;;;;;;23.56;46.43;102209.84;5023759;28;20037;-67
2022/06/17 06:20:46;;;;;;;13.60;10.13;;;;;;;23.65;46.57;102202.53;5050887;28;20385;-68
2022/06/17 06:23:20;;;;;;;8.65;7.78;;;;;;;23.74;46.18;102202.41;5030992;28;20092;-68
2022/06/17 06:25:47;;;;;;;10.75;8.13;;;;;;;23.82;45.93;102209.00;5029026;28;20048;-68
2022/06/17 06:28:26;;;;;;;8.18;7.32;;;;;;;23.88;46.09;102209.22;5030379;28;20068;-69
2022/06/17 06:31:09;;;;;;;10.55;7.55;;;;;;;24.00;45.66;102212.53;5029570;28;20041;-69
2022/06/17 06:33:40;;;;;;;11.25;7.70;;;;;;;24.07;45.83;102216.34;5026660;28;20522;-68
2022/06/17 06:36:07;;;;;;;10.00;7.63;;;;;;;24.15;45.78;102218.25;5029478;28;20568;-69
2022/06/17 06:38:34;;;;;;;10.25;7.00;;;;;;;24.23;45.23;102212.81;5029823;28;20053;-68
2022/06/17 06:41:02;;;;;;;8.93;7.15;;;;;;;24.31;45.17;102212.88;5032557;28;20072;-68
2022/06/17 06:43:30;;;;;;;10.57;7.47;;;;;;;24.38;45.03;102208.44;5032234;28;20053;-66
2022/06/17 06:46:19;;;;;;;10.10;7.10;;;;;;;24.43;45.01;102208.81;5031406;28;20071;-66
2022/06/17 06:48:49;;;;;;;9.75;6.70;;;;;;;24.49;44.70;102202.63;5032291;28;20474;-66
2022/06/17 06:51:17;;;;;;;7.07;6.38;;;;;;;24.54;44.52;102194.78;5036097;28;20042;-66
2022/06/17 06:53:45;;;;;;;8.85;6.50;;;;;;;24.58;44.80;102209.91;5042664;28;20034;-66
2022/06/17 06:56:11;;;;;;;7.38;6.25;;;;;;;24.64;44.57;102200.13;5032450;28;20088;-65
2022/06/17 06:58:38;;;;;;;8.82;6.53;;;;;;;24.70;44.37;102204.94;5032582;28;20049;-65
2022/06/17 07:01:06;;;;;;;9.38;6.30;;;;;;;24.79;44.55;102203.06;5033774;28;20091;-66
2022/06/17 07:03:36;;;;;;;11.23;6.55;;;;;;;24.86;44.54;102209.63;5045341;28;20520;-66
2022/06/17 07:06:05;;;;;;;8.10;6.40;;;;;;;24.94;44.03;102217.88;5028781;28;20075;-66
2022/06/17 07:08:34;;;;;;;7.90;5.95;;;;;;;25.03;44.12;102219.63;5033448;28;20072;-65
2022/06/17 07:11:02;;;;;;;7.38;6.35;;;;;;;25.18;43.95;102209.66;5033721;28;20458;-66
2022/06/17 07:13:31;;;;;;;7.28;6.30;;;;;;;25.39;43.72;102213.81;5033063;28;20049;-66
2022/06/17 07:15:59;;;;;;;10.88;6.38;;;;;;;25.49;43.74;102217.25;5033360;28;20040;-65
2022/06/17 07:18:33;;;;;;;8.13;5.50;;;;;;;25.57;43.34;102200.72;5045363;28;20060;-66
2022/06/17 07:21:08;;;;;;;10.75;5.63;;;;;;;25.63;43.03;102197.28;5033284;28;20289;-66
2022/06/17 07:23:37;;;;;;;7.65;5.82;;;;;;;25.69;42.43;102206.75;5032920;28;20092;-66
2022/06/17 07:26:19;;;;;;;7.15;5.70;;;;;;;25.70;42.48;102202.97;5033350;28;20069;-66
2022/06/17 07:28:48;;;;;;;6.95;5.07;;;;;;;25.76;42.50;102202.28;5033188;28;20034;-66
2022/06/17 07:31:15;;;;;;;8.38;5.65;;;;;;;25.83;42.36;102201.38;5033075;28;20048;-67
2022/06/17 07:33:44;;;;;;;7.28;5.40;;;;;;;25.95;42.45;102202.72;5035743;28;20037;-67
2022/06/17 07:39:53;;;;;;;10.20;5.35;;;;;;;26.08;42.28;102201.34;5044448;28;20614;-65
2022/06/17 07:41:49;;;;;;;7.43;5.22;;;;;;;26.23;42.25;102188.53;5052661;28;20036;-65
2022/06/17 07:44:17;;;;;;;7.57;5.05;;;;;;;26.25;41.72;102183.69;5052982;28;20041;-66
2022/06/17 07:46:45;;;;;;;5.70;4.60;;;;;;;26.26;41.63;102182.66;5052372;28;20071;-65
2022/06/17 07:49:12;;;;;;;7.38;5.43;;;;;;;26.29;41.36;102191.44;5052670;28;20036;-65
2022/06/17 07:51:39;;;;;;;8.88;5.22;;;;;;;26.32;41.61;102189.34;5052896;28;20144;-66
2022/06/17 07:54:06;;;;;;;5.75;4.55;;;;;;;26.40;41.37;102200.38;5052628;28;20053;-66
2022/06/17 07:56:33;;;;;;;12.50;4.90;;;;;;;26.53;41.23;102211.66;5052525;28;20053;-66
2022/06/17 07:58:59;;;;;;;5.88;4.80;;;;;;;26.64;41.26;102210.38;5052475;28;20033;-66
2022/06/17 08:01:26;;;;;;;6.55;4.45;;;;;;;26.80;41.07;102224.94;5052483;28;20037;-66
2022/06/17 08:03:53;;;;;;;5.35;4.43;;;;;;;26.95;40.95;102215.88;5052726;28;20072;-67
2022/06/17 08:06:20;;;;;;;5.00;4.53;;;;;;;27.14;40.59;102205.25;5050441;28;20228;-67
2022/06/17 08:08:48;;;;;;;7.93;4.55;;;;;;;27.32;40.29;102201.31;5052212;28;20124;-66
2022/06/17 08:11:15;;;;;;;13.27;4.10;;;;;;;27.50;40.25;102202.72;5052081;28;20037;-66
2022/06/17 08:13:43;;;;;;;10.07;4.47;;;;;;;27.71;40.17;102201.16;5052092;28;20091;-66
2022/06/17 08:16:12;;;;;;;7.20;4.68;;;;;;;27.93;39.93;102202.13;5052215;28;20039;-67
2022/06/17 08:18:40;;;;;;;9.82;4.50;;;;;;;28.11;39.63;102208.09;5052117;28;20048;-66
2022/06/17 08:21:10;;;;;;;5.88;3.50;;;;;;;28.26;39.26;102214.53;5051807;28;20143;-67
2022/06/17 08:23:38;;;;;;;7.32;3.47;;;;;;;28.41;38.49;102214.50;5052235;28;20136;-67
2022/06/17 08:26:05;;;;;;;7.07;3.20;;;;;;;28.50;38.28;102223.53;5050454;28;20045;-66
2022/06/17 08:28:32;;;;;;;6.80;3.60;;;;;;;28.66;38.19;102232.47;5051745;28;20513;-66
2022/06/17 08:30:59;;;;;;;4.68;3.20;;;;;;;28.86;38.00;102229.09;5051802;28;20220;-66
2022/06/17 08:33:29;;;;;;;5.47;3.83;;;;;;;29.05;37.72;102222.94;5051725;28;20132;-66
2022/06/17 08:36:14;;;;;;;4.63;2.72;;;;;;;29.23;37.42;102215.03;5051453;28;20126;-66
2022/06/17 08:38:53;;;;;;;3.75;2.95;;;;;;;29.39;36.97;102202.81;5051944;28;20095;-66
2022/06/17 08:41:31;;;;;;;4.07;2.75;;;;;;;29.58;36.75;102210.47;5051667;28;20059;-66
2022/06/17 08:44:19;;;;;;;3.20;2.20;;;;;;;29.75;36.18;102213.81;5048627;28;20094;-66
2022/06/17 08:47:01;;;;;;;4.80;3.00;;;;;;;29.82;35.69;102202.78;5031899;28;20042;-65
2022/06/17 08:49:42;;;;;;;3.03;2.72;;;;;;;29.86;35.34;102206.84;5031730;28;20045;-65
2022/06/17 08:52:29;;;;;;;4.90;3.42;;;;;;;29.84;35.23;102192.34;5035604;28;20041;-66
2022/06/17 08:55:26;;;;;;;5.82;3.35;;;;;;;29.73;34.96;102193.78;5031968;28;20096;-65
2022/06/17 08:58:00;;;;;;;5.88;3.20;;;;;;;29.68;34.67;102190.72;5031861;28;20095;-65
2022/06/17 09:00:51;;;;;;;5.57;3.45;;;;;;;29.61;34.86;102189.81;5030959;28;20071;-66
2022/06/17 09:03:30;;;;;;;6.65;3.70;;;;;;;29.65;34.74;102191.13;5031861;28;20045;-66
2022/06/17 09:06:13;;;;;;;8.63;3.50;;;;;;;29.65;34.61;102191.97;5031631;28;20056;-66
2022/06/17 09:09:01;;;;;;;6.38;3.30;;;;;;;29.76;34.84;102193.38;5031485;28;20061;-65
2022/06/17 09:12:02;;;;;;;5.20;3.35;;;;;;;29.94;34.60;102195.59;5031365;28;20040;-65
2022/06/17 09:14:54;;;;;;;4.35;3.00;;;;;;;30.13;34.63;102194.03;5031497;28;20072;-65
2022/06/17 09:17:48;;;;;;;4.72;3.30;;;;;;;30.34;34.54;102205.00;5030150;28;20044;-66
2022/06/17 09:20:19;;;;;;;4.85;3.42;;;;;;;30.52;34.26;102208.09;5031469;28;20049;-66
2022/06/17 09:22:58;;;;;;;5.97;3.38;;;;;;;30.67;33.93;102206.03;5032120;28;20103;-66
2022/06/17 09:25:36;;;;;;;6.00;3.22;;;;;;;30.84;33.60;102214.81;5031144;28;20059;-66
2022/06/17 09:28:09;;;;;;;4.53;2.97;;;;;;;30.96;33.34;102212.28;5030826;28;20046;-66
2022/06/17 09:30:44;;;;;;;7.07;2.70;;;;;;;31.07;33.21;102208.03;5030805;28;20069;-65
2022/06/17 09:33:29;;;;;;;4.28;2.67;;;;;;;31.23;32.95;102182.69;5030876;28;20045;-66
2022/06/17 09:36:07;;;;;;;4.38;2.50;;;;;;;31.30;32.58;102180.78;5030751;28;20046;-66
2022/06/17 09:38:40;;;;;;;4.60;2.70;;;;;;;31.33;32.12;102180.34;5031181;28;20068;-66
2022/06/17 09:41:42;;;;;;;2.75;2.45;;;;;;;31.35;31.99;102180.13;5030850;28;20080;-66
2022/06/17 09:44:24;;;;;;;5.22;2.80;;;;;;;31.40;31.75;102181.19;5010267;28;20133;-66
2022/06/17 09:47:01;;;;;;;3.47;2.80;;;;;;;31.47;31.52;102192.28;5011375;28;20096;-66
2022/06/17 09:49:48;;;;;;;6.93;2.70;;;;;;;31.51;31.49;102190.78;5011472;28;20045;-66
2022/06/17 09:52:25;;;;;;;5.40;2.58;;;;;;;31.58;31.49;102184.16;5011218;28;20041;-66
2022/06/17 09:55:04;;;;;;;4.13;2.58;;;;;;;31.70;31.35;102192.72;5010966;28;20085;-67
2022/06/17 09:57:47;;;;;;;6.65;2.40;;;;;;;31.78;30.79;102191.63;5036802;28;20041;-67
2022/06/17 10:00:20;;;;;;;3.42;2.20;;;;;;;31.82;30.86;102190.97;5050964;28;20132;-66
2022/06/17 10:03:19;;;;;;;4.03;2.83;;;;;;;31.90;30.78;102196.31;5050534;28;20061;-66
2022/06/17 10:05:52;;;;;;;7.75;3.47;;;;;;;31.98;30.84;102186.91;5047303;28;20052;-67
2022/06/17 10:08:32;;;;;;;2.75;2.30;;;;;;;32.08;30.82;102189.22;5049507;28;20041;-67
2022/06/17 10:11:35;;;;;;;5.05;2.38;;;;;;;32.26;30.90;102185.78;5052312;28;20049;-66
2022/06/17 10:14:36;;;;;;;5.07;2.85;;;;;;;32.44;30.46;102177.56;5054510;28;20072;-66
2022/06/17 10:20:43;;;;;;;4.40;2.42;;;;;;;32.65;30.51;102163.31;5053168;28;20041;-66
2022/06/17 10:23:37;;;;;;;5.82;2.90;;;;;;;32.81;30.42;102162.84;5053882;28;20064;-65
2022/06/17 10:26:22;;;;;;;6.72;3.75;;;;;;;32.96;30.27;102153.31;5054255;28;20100;-65
2022/06/17 10:29:25;;;;;;;6.80;3.20;;;;;;;33.00;29.97;102158.19;5052246;28;20061;-65
2022/06/17 10:31:52;;;;;;;6.35;3.13;;;;;;;33.06;29.60;102143.38;5014300;28;20042;-65
2022/06/17 10:34:27;;;;;;;4.80;3.35;;;;;;;33.15;29.41;102143.94;5029531;28;20061;-65
2022/06/17 10:36:59;;;;;;;12.15;3.60;;;;;;;33.21;29.38;102144.97;5016544;28;20049;-65
2022/06/17 10:39:28;;;;;;;5.93;3.13;;;;;;;33.27;29.40;102144.91;5023617;28;20037;-66
2022/06/17 10:41:57;;;;;;;10.50;3.42;;;;;;;33.44;29.41;102145.19;5032677;28;20037;-65
2022/06/17 10:44:26;;;;;;;4.82;3.00;;;;;;;33.55;28.91;102141.69;5033751;28;20411;-65
2022/06/17 10:46:59;;;;;;;5.68;2.75;;;;;;;33.61;28.74;102148.28;5033133;28;20056;-65
2022/06/17 10:49:38;;;;;;;5.70;2.97;;;;;;;33.68;28.51;102135.13;5033053;28;20103;-66
2022/06/17 10:52:19;;;;;;;8.23;3.22;;;;;;;33.81;28.45;102129.41;5032750;28;20099;-65
2022/06/17 10:54:49;;;;;;;2.67;2.25;;;;;;;33.86;28.28;102139.88;5032742;28;20055;-66
2022/06/17 10:58:02;;;;;;;6.25;2.58;;;;;;;33.86;27.64;102137.94;5043932;28;20068;-66
2022/06/17 11:00:30;;;;;;;4.88;2.40;;;;;;;33.92;27.67;102136.16;5052646;28;20102;-66
2022/06/17 11:02:57;;;;;;;3.42;2.10;;;;;;;33.99;27.39;102126.63;5050011;28;20111;-66
2022/06/17 11:05:33;;;;;;;4.28;2.97;;;;;;;34.13;27.33;102127.31;5034263;28;20041;-66
2022/06/17 11:08:00;;;;;;;4.32;2.90;;;;;;;34.20;26.91;102114.16;5033689;28;20034;-66
2022/06/17 11:10:30;;;;;;;5.22;3.30;;;;;;;34.20;26.81;102111.38;5034238;28;20045;-67
2022/06/17 11:13:06;;;;;;;7.28;3.35;;;;;;;34.25;26.98;102113.44;5033393;28;20044;-66
2022/06/17 11:15:36;;;;;;;5.60;3.75;;;;;;;34.35;26.63;102106.25;5033001;28;20041;-66
2022/06/17 11:18:13;;;;;;;6.72;3.40;;;;;;;34.45;25.89;102104.84;5033514;28;20037;-66
2022/06/17 11:20:42;;;;;;;4.68;3.30;;;;;;;34.52;26.07;102114.81;5033439;28;20064;-66
2022/06/17 11:23:41;;;;;;;4.78;3.42;;;;;;;34.69;25.99;102104.66;5040748;28;20135;-66
2022/06/17 11:26:25;;;;;;;5.22;3.58;;;;;;;34.84;25.96;102101.44;5033254;28;20045;-66
2022/06/17 11:28:56;;;;;;;6.13;4.32;;;;;;;34.92;25.99;102089.06;5033306;28;20069;-66
2022/06/17 11:31:25;;;;;;;7.32;4.40;;;;;;;35.01;25.95;102093.25;5032921;28;20065;-69
2022/06/17 11:34:02;;;;;;;5.93;4.15;;;;;;;35.03;25.21;102094.69;5032970;28;20064;-66
2022/06/17 11:36:36;;;;;;;6.15;3.90;;;;;;;35.04;25.50;102074.06;5034479;28;20099;-66
2022/06/17 11:39:25;;;;;;;6.53;5.07;;;;;;;35.09;25.79;102078.91;5037692;28;20045;-67
2022/06/17 11:41:51;;;;;;;5.78;4.63;;;;;;;35.14;25.43;102072.59;5025549;28;20053;-67
2022/06/17 11:44:20;;;;;;;6.45;4.13;;;;;;;35.14;25.32;102072.59;5031038;28;20052;-67
2022/06/17 11:47:01;;;;;;;6.20;3.60;;;;;;;35.24;25.57;102073.69;5032644;28;20042;-67
2022/06/17 11:49:36;;;;;;;6.93;5.05;;;;;;;35.39;25.74;102064.00;5029790;28;20045;-67
2022/06/17 11:52:34;;;;;;;6.80;3.65;;;;;;;35.49;25.52;102065.06;5030752;28;20069;-67
2022/06/17 11:55:02;;;;;;;6.30;4.03;;;;;;;35.64;25.08;102061.75;5039474;28;20063;-66
2022/06/17 11:57:33;;;;;;;9.02;4.28;;;;;;;35.71;25.33;102061.66;5037115;28;20145;-66
2022/06/17 12:00:18;;;;;;;8.48;3.95;;;;;;;35.70;24.98;102062.75;5032551;28;20053;-66
2022/06/17 12:02:59;;;;;;;6.90;4.00;;;;;;;35.70;25.09;102066.41;5050457;28;20041;-66